createdAt,value
2018-03-19T03:11:13.863Z,1.97
2018-03-19T03:13:43.815Z,2.10
2018-03-19T03:16:14.588Z,4.07
2018-03-19T03:18:43.950Z,3.30
2018-03-19T03:21:13.613Z,3.07
2018-03-19T03:23:43.493Z,2.73
2018-03-19T03:26:12.919Z,3.70
2018-03-19T03:28:42.747Z,5.43
2018-03-19T03:31:12.936Z,2.87
2018-03-19T03:33:42.959Z,4.57
2018-03-19T03:36:12.701Z,4.43
2018-03-19T03:38:42.576Z,3.13
2018-03-19T03:41:11.887Z,3.40
2018-03-19T03:43:41.455Z,3.30
2018-03-19T03:46:11.320Z,5.10
2018-03-19T03:48:42.363Z,4.33
2018-03-19T03:51:12.237Z,5.60
2018-03-19T03:53:41.773Z,4.82
2018-03-19T03:56:10.899Z,5.12
2018-03-19T03:58:39.814Z,4.97
2018-03-19T04:01:09.418Z,5.05
2018-03-19T04:03:39.126Z,4.82
2018-03-19T04:06:09.505Z,5.35
2018-03-19T04:08:39.033Z,5.68
2018-03-19T04:11:11.232Z,8.00
2018-03-19T04:13:41.640Z,17.05
2018-03-19T04:16:12.104Z,7.45
2018-03-19T04:18:41.814Z,6.40
2018-03-19T04:21:11.346Z,3.53
2018-03-19T04:23:41.849Z,8.25
2018-03-19T04:26:11.755Z,6.28
2018-03-19T04:28:41.262Z,10.55
2018-03-19T04:31:10.783Z,9.27
2018-03-19T04:33:41.049Z,5.62
2018-03-19T04:36:11.977Z,11.82
2018-03-19T04:38:43.475Z,12.05
2018-03-19T04:41:13.657Z,11.02
2018-03-19T04:43:42.532Z,7.62
2018-03-19T04:46:11.900Z,5.18
2018-03-19T04:48:41.440Z,5.57
2018-03-19T04:51:12.535Z,9.18
2018-03-19T04:53:41.635Z,7.20
2018-03-19T04:56:12.011Z,4.90
2018-03-19T04:58:42.300Z,5.47
2018-03-19T05:01:11.823Z,4.82
2018-03-19T05:03:43.146Z,7.35
2018-03-19T05:06:12.792Z,7.57
2018-03-19T05:08:42.483Z,8.25
2018-03-19T05:11:11.992Z,8.15
2018-03-19T05:13:42.509Z,6.55
2018-03-19T05:16:12.062Z,7.57
2018-03-19T05:18:42.873Z,17.33
2018-03-19T05:21:12.905Z,21.10
2018-03-19T05:23:43.766Z,33.10
2018-03-19T05:26:13.224Z,36.83
2018-03-19T05:28:42.824Z,52.08
2018-03-19T05:31:12.144Z,48.67
2018-03-19T05:33:43.252Z,29.63
2018-03-19T05:36:12.728Z,40.22
2018-03-19T05:38:42.069Z,39.42
2018-03-19T05:41:12.493Z,31.77
2018-03-19T05:43:43.916Z,24.77
2018-03-19T05:46:14.506Z,13.20
2018-03-19T05:48:44.100Z,10.18
2018-03-19T05:51:14.654Z,11.75
2018-03-19T05:53:45.253Z,12.05
2018-03-19T05:56:15.305Z,18.15
2018-03-19T05:58:44.984Z,15.82
2018-03-19T06:01:15.547Z,16.48
2018-03-19T06:03:44.712Z,14.35
2018-03-19T06:06:15.258Z,17.73
2018-03-19T06:08:45.862Z,15.38
2018-03-19T06:11:17.082Z,27.55
2018-03-19T06:13:46.743Z,25.70
2018-03-19T06:16:16.017Z,25.73
2018-03-19T06:18:46.036Z,17.23
2018-03-19T06:21:17.293Z,18.92
2018-03-19T06:23:46.427Z,16.87
2018-03-19T06:26:15.906Z,14.43
2018-03-19T06:28:45.198Z,18.35
2018-03-19T06:31:16.551Z,14.70
2018-03-19T06:33:45.764Z,16.67
2018-03-19T06:36:15.375Z,14.55
2018-03-19T06:38:45.600Z,17.30
2018-03-19T06:41:15.439Z,19.40
2018-03-19T06:43:44.850Z,18.80
2018-03-19T06:46:17.173Z,19.85
2018-03-19T06:48:47.368Z,26.58
2018-03-19T06:51:16.894Z,22.73
2018-03-19T06:53:46.389Z,17.65
2018-03-19T06:56:15.793Z,21.35
2018-03-19T06:58:45.456Z,21.70
2018-03-19T07:01:15.493Z,23.67
2018-03-19T07:03:44.598Z,18.00
2018-03-19T07:06:13.733Z,23.42
2018-03-19T07:08:43.015Z,28.38
2018-03-19T07:11:12.733Z,28.55
2018-03-19T07:13:42.022Z,18.60
2018-03-19T07:16:11.526Z,26.77
2018-03-19T07:18:40.812Z,24.25
2018-03-19T07:21:10.369Z,26.58
2018-03-19T07:23:39.765Z,22.52
2018-03-19T07:26:09.039Z,29.12
2018-03-19T07:28:38.361Z,28.90
2018-03-19T07:31:07.659Z,29.52
2018-03-19T07:33:37.763Z,24.63
2018-03-19T07:36:07.060Z,30.52
2018-03-19T07:38:36.803Z,29.00
2018-03-19T07:41:06.160Z,27.58
2018-03-19T07:43:35.412Z,26.85
2018-03-19T07:46:04.563Z,22.62
2018-03-19T07:48:33.888Z,18.60
2018-03-19T07:51:03.333Z,21.98
2018-03-19T07:53:32.676Z,25.08
2018-03-19T07:56:01.940Z,23.33
2018-03-19T07:58:31.150Z,19.20
2018-03-19T08:01:00.466Z,27.87
2018-03-19T08:03:29.552Z,25.67
2018-03-19T08:05:58.813Z,22.25
2018-03-19T08:08:27.943Z,16.65
2018-03-19T08:10:57.180Z,18.48
2018-03-19T08:13:26.489Z,17.60
2018-03-19T08:15:56.889Z,17.77
2018-03-19T08:18:26.107Z,20.65
2018-03-19T08:20:55.606Z,20.77
2018-03-19T08:23:24.931Z,21.85
2018-03-19T08:25:54.284Z,21.70
2018-03-19T08:28:24.539Z,20.58
2018-03-19T08:30:54.488Z,25.08
2018-03-19T08:33:23.764Z,17.58
2018-03-19T08:35:52.865Z,19.75
2018-03-19T08:38:22.548Z,19.27
2018-03-19T08:40:51.880Z,20.80
2018-03-19T08:43:21.357Z,18.85
2018-03-19T08:45:50.703Z,21.92
2018-03-19T08:48:20.700Z,24.33
2018-03-19T08:50:50.403Z,19.67
2018-03-19T08:53:20.557Z,20.75
2018-03-19T08:55:49.840Z,21.80
2018-03-19T08:58:19.098Z,12.93
2018-03-19T09:00:48.630Z,22.90
2018-03-19T09:03:18.843Z,32.72
2018-03-19T09:05:48.380Z,23.83
2018-03-19T09:08:18.074Z,22.37
2018-03-19T09:10:47.781Z,21.00
2018-03-19T09:13:17.607Z,20.90
2018-03-19T09:15:47.286Z,26.65
2018-03-19T09:18:16.828Z,16.70
2018-03-19T09:20:46.294Z,22.73
2018-03-19T09:23:15.414Z,24.67
2018-03-19T09:25:44.484Z,19.33
2018-03-19T09:28:13.792Z,19.95
2018-03-19T09:30:43.328Z,24.65
2018-03-19T09:33:12.824Z,22.42
2018-03-19T09:35:42.105Z,26.55
2018-03-19T09:38:11.354Z,25.70
2018-03-19T09:40:40.928Z,21.52
2018-03-19T09:43:11.424Z,22.17
2018-03-19T09:45:40.929Z,26.40
2018-03-19T09:48:10.456Z,23.70
2018-03-19T09:50:40.420Z,25.30
2018-03-19T09:53:09.742Z,26.30
2018-03-19T09:55:40.059Z,24.50
2018-03-19T09:58:10.206Z,22.23
2018-03-19T10:00:39.517Z,25.33
2018-03-19T10:03:10.224Z,20.70
2018-03-19T10:05:39.744Z,21.20
2018-03-19T10:08:09.878Z,17.98
2018-03-19T10:10:39.151Z,23.27
2018-03-19T10:13:08.533Z,29.27
2018-03-19T10:15:39.390Z,18.02
2018-03-19T10:18:09.018Z,20.75
2018-03-19T10:20:38.314Z,14.30
2018-03-19T10:23:07.646Z,14.70
2018-03-19T10:25:36.921Z,22.58
2018-03-19T10:28:06.411Z,16.20
2018-03-19T10:30:36.020Z,19.50
2018-03-19T10:33:05.786Z,14.25
2018-03-19T10:35:37.675Z,11.15
2018-03-19T10:38:07.415Z,19.62
2018-03-19T10:40:36.875Z,19.12
2018-03-19T10:43:06.700Z,32.90
2018-03-19T10:45:37.221Z,27.08
2018-03-19T10:48:07.490Z,26.55
2018-03-19T10:50:36.980Z,14.63
2018-03-19T10:53:06.360Z,19.08
2018-03-19T10:55:35.669Z,20.42
2018-03-19T10:58:05.385Z,16.95
2018-03-19T11:00:34.677Z,26.15
2018-03-19T11:03:08.426Z,22.40
2018-03-19T11:05:43.140Z,31.73
2018-03-19T11:08:12.651Z,32.08
2018-03-19T11:10:41.991Z,35.63
2018-03-19T11:13:11.314Z,28.85
2018-03-19T11:15:40.377Z,29.60
2018-03-19T11:18:09.905Z,28.70
2018-03-19T11:20:39.217Z,27.67
2018-03-19T11:23:10.013Z,27.77
2018-03-19T11:25:40.264Z,25.62
2018-03-19T11:28:09.742Z,27.40
2018-03-19T11:30:38.837Z,25.52
2018-03-19T11:33:08.532Z,28.33
2018-03-19T11:35:39.091Z,24.63
2018-03-19T11:38:08.691Z,24.33
2018-03-19T11:40:38.393Z,27.95
2018-03-19T11:43:07.992Z,37.67
2018-03-19T11:45:38.206Z,44.30
2018-03-19T11:48:07.554Z,59.47
2018-03-19T11:50:36.809Z,58.13
2018-03-19T11:53:06.513Z,60.55
2018-03-19T11:55:36.194Z,46.53
2018-03-19T11:58:05.613Z,54.17
2018-03-19T12:00:35.030Z,47.40
2018-03-19T12:03:05.287Z,38.22
2018-03-19T12:05:34.384Z,50.67
2018-03-19T12:08:03.633Z,38.65
2018-03-19T12:10:32.746Z,36.83
2018-03-19T12:13:02.794Z,41.70
2018-03-19T12:15:32.066Z,35.35
2018-03-19T12:18:01.325Z,54.92
2018-03-19T12:20:30.697Z,37.03
2018-03-19T12:23:00.034Z,42.30
2018-03-19T12:25:29.363Z,42.70
2018-03-19T12:27:58.903Z,53.33
2018-03-19T12:30:28.614Z,264.70
2018-03-19T12:32:57.891Z,114.62
2018-03-19T12:35:28.543Z,55.53
2018-03-19T12:37:57.905Z,78.10
2018-03-19T12:40:27.591Z,55.85
2018-03-19T12:42:56.977Z,64.03
2018-03-19T12:45:26.658Z,50.58
2018-03-19T12:47:56.052Z,73.40
2018-03-19T12:50:25.533Z,71.15
2018-03-19T12:52:55.037Z,51.50
2018-03-19T12:55:24.321Z,54.13
2018-03-19T12:57:54.792Z,150.77
2018-03-19T13:00:24.290Z,144.18
2018-03-19T13:02:53.579Z,58.35
2018-03-19T13:05:23.042Z,43.25
2018-03-19T13:07:52.896Z,60.70
2018-03-19T13:10:22.824Z,44.63
2018-03-19T13:12:52.308Z,66.47
2018-03-19T13:15:21.411Z,43.33
2018-03-19T13:17:50.882Z,64.97
2018-03-19T13:20:20.624Z,49.63
2018-03-19T13:22:50.194Z,39.28
2018-03-19T13:25:19.503Z,86.65
2018-03-19T13:27:48.823Z,61.85
2018-03-19T13:30:18.113Z,94.90
2018-03-19T13:32:47.697Z,49.33
2018-03-19T13:35:17.016Z,67.10
2018-03-19T13:37:46.334Z,72.40
2018-03-19T13:40:15.831Z,83.40
2018-03-19T13:42:44.945Z,51.75
2018-03-19T13:45:14.456Z,54.13
2018-03-19T13:47:43.907Z,46.37
2018-03-19T13:50:13.436Z,75.18
2018-03-19T13:52:43.160Z,103.65
2018-03-19T13:55:12.887Z,54.67
2018-03-19T13:57:42.295Z,59.38
2018-03-19T14:00:12.942Z,86.07
2018-03-19T14:02:42.379Z,95.65
2018-03-19T14:05:12.008Z,55.85
2018-03-19T14:07:41.390Z,108.18
2018-03-19T14:10:11.344Z,192.07
2018-03-19T14:12:41.231Z,63.50
2018-03-19T14:15:10.688Z,60.85
2018-03-19T14:17:40.331Z,225.93
2018-03-19T14:20:09.649Z,106.63
2018-03-19T14:22:38.938Z,99.07
2018-03-19T14:25:08.081Z,108.45
2018-03-19T14:27:37.705Z,94.70
2018-03-19T14:30:07.188Z,81.07
2018-03-19T14:32:36.756Z,63.72
2018-03-19T14:35:06.069Z,65.68
2018-03-19T14:37:36.138Z,59.35
2018-03-19T14:40:05.939Z,87.75
2018-03-19T14:42:36.492Z,99.05
2018-03-19T14:45:05.900Z,129.70
2018-03-19T14:47:35.179Z,93.65
2018-03-19T14:50:12.581Z,247.20
2018-03-19T14:52:42.367Z,173.02
2018-03-19T14:55:13.017Z,76.80
2018-03-19T14:57:42.908Z,156.35
2018-03-19T15:00:12.320Z,96.43
2018-03-19T15:02:42.492Z,53.35
2018-03-19T15:05:12.385Z,78.57
2018-03-19T15:07:41.725Z,122.82
2018-03-19T15:10:11.841Z,78.87
2018-03-19T15:12:42.067Z,105.32
2018-03-19T15:15:12.839Z,151.73
2018-03-19T15:17:41.970Z,46.83
2018-03-19T15:20:11.075Z,113.32
2018-03-19T15:22:40.832Z,56.10
2018-03-19T15:25:10.294Z,44.60
2018-03-19T15:27:39.772Z,110.82
2018-03-19T15:30:09.044Z,57.22
2018-03-19T15:32:38.281Z,55.28
2018-03-19T15:35:07.687Z,135.27
2018-03-19T15:37:36.845Z,67.70
2018-03-19T15:40:06.080Z,120.40
2018-03-19T15:42:35.430Z,69.32
2018-03-19T15:45:05.849Z,58.28
2018-03-19T15:47:35.563Z,41.97
2018-03-19T15:50:04.716Z,45.03
2018-03-19T15:52:34.385Z,65.18
2018-03-19T15:55:04.208Z,103.05
2018-03-19T15:57:33.622Z,115.37
2018-03-19T16:00:03.239Z,129.73
2018-03-19T16:02:32.544Z,77.37
2018-03-19T16:05:01.828Z,107.12
2018-03-19T16:07:31.094Z,93.78
2018-03-19T16:10:00.614Z,47.85
2018-03-19T16:12:30.435Z,37.08
2018-03-19T16:14:59.968Z,40.55
2018-03-19T16:17:29.449Z,51.63
2018-03-19T16:19:58.752Z,109.55
2018-03-19T16:22:28.168Z,32.17
2018-03-19T16:24:57.874Z,38.65
2018-03-19T16:27:27.165Z,28.35
2018-03-19T16:29:56.822Z,72.18
2018-03-19T16:32:26.467Z,75.47
2018-03-19T16:34:56.404Z,73.80
2018-03-19T16:37:25.660Z,75.43
2018-03-19T16:39:54.779Z,96.20
2018-03-19T16:42:24.035Z,72.30
2018-03-19T16:44:53.409Z,46.40
2018-03-19T16:47:22.876Z,46.47
2018-03-19T16:49:52.594Z,35.10
2018-03-19T16:52:21.687Z,30.02
2018-03-19T16:54:50.811Z,39.25
2018-03-19T16:57:20.201Z,40.12
2018-03-19T16:59:50.277Z,32.65
2018-03-19T17:02:19.540Z,24.90
2018-03-19T17:04:48.917Z,22.55
2018-03-19T17:07:18.463Z,26.00
2018-03-19T17:09:47.720Z,25.20
2018-03-19T17:12:17.045Z,25.92
2018-03-19T17:14:47.676Z,25.48
2018-03-19T17:17:17.202Z,22.27
2018-03-19T17:19:46.702Z,27.20
2018-03-19T17:22:16.214Z,27.65
2018-03-19T17:24:45.707Z,22.83
2018-03-19T17:27:15.016Z,21.37
2018-03-19T17:29:45.176Z,29.92
2018-03-19T17:32:14.569Z,23.15
2018-03-19T17:34:43.862Z,23.17
2018-03-19T17:37:13.355Z,22.02
2018-03-19T17:39:42.646Z,22.13
2018-03-19T17:42:11.977Z,24.00
2018-03-19T17:44:41.691Z,18.85
2018-03-19T17:47:11.803Z,19.90
2018-03-19T17:49:41.499Z,21.85
2018-03-19T17:52:10.603Z,19.98
2018-03-19T17:54:39.945Z,19.25
2018-03-19T17:57:09.450Z,21.75
2018-03-19T17:59:40.008Z,26.35
2018-03-19T18:02:09.530Z,27.05
2018-03-19T18:04:38.829Z,28.03
2018-03-19T18:07:08.106Z,22.53
2018-03-19T18:09:37.607Z,26.10
2018-03-19T18:12:07.081Z,27.83
2018-03-19T18:14:37.137Z,26.13
2018-03-19T18:17:06.262Z,26.97
2018-03-19T18:19:35.511Z,23.63
2018-03-19T18:22:05.634Z,25.10
2018-03-19T18:24:35.047Z,22.50
2018-03-19T18:27:04.760Z,21.73
2018-03-19T18:29:34.078Z,24.97
2018-03-19T18:32:03.768Z,23.87
2018-03-19T18:34:33.488Z,23.57
2018-03-19T18:37:03.362Z,31.97
2018-03-19T18:39:32.720Z,24.43
2018-03-19T18:42:02.414Z,27.53
2018-03-19T18:44:32.123Z,27.90
2018-03-19T18:47:01.722Z,25.40
2018-03-19T18:49:31.042Z,24.10
2018-03-19T18:52:00.527Z,24.83
2018-03-19T18:54:30.258Z,21.40
2018-03-19T18:56:59.624Z,20.67
2018-03-19T18:59:29.660Z,18.43
2018-03-19T19:01:59.352Z,17.67
2018-03-19T19:04:28.719Z,15.73
2018-03-19T19:06:57.982Z,16.23
2018-03-19T19:09:27.574Z,15.47
2018-03-19T19:11:56.830Z,12.77
2018-03-19T19:14:26.182Z,13.77
2018-03-19T19:16:55.461Z,13.67
2018-03-19T19:19:24.736Z,13.67
2018-03-19T19:21:54.342Z,13.97
2018-03-19T19:24:23.899Z,12.17
2018-03-19T19:26:53.170Z,12.47
2018-03-19T19:29:22.613Z,11.13
2018-03-19T19:31:52.021Z,12.27
2018-03-19T19:34:22.258Z,11.57
2018-03-19T19:36:52.450Z,13.50
2018-03-19T19:39:22.220Z,13.10
2018-03-19T19:41:52.088Z,11.70
2018-03-19T19:44:21.734Z,10.80
2018-03-19T19:46:51.503Z,13.27
2018-03-19T19:49:21.194Z,10.47
2018-03-19T19:51:50.860Z,11.87
2018-03-19T19:54:20.222Z,9.63
2018-03-19T19:56:50.598Z,8.63
2018-03-19T19:59:20.448Z,8.33
2018-03-19T20:01:50.141Z,8.33
2018-03-19T20:04:19.599Z,8.80
2018-03-19T20:06:49.103Z,8.43
2018-03-19T20:09:19.540Z,6.80
2018-03-19T20:11:48.664Z,9.00
2018-03-19T20:14:18.385Z,7.07
2018-03-19T20:16:47.883Z,6.50
2018-03-19T20:19:17.150Z,5.03
2018-03-19T20:21:46.458Z,6.27
2018-03-19T20:24:15.751Z,6.53
2018-03-19T20:26:45.431Z,5.60
2018-03-19T20:29:14.773Z,7.57
2018-03-19T20:31:44.275Z,7.50
2018-03-19T20:34:13.630Z,6.70
2018-03-19T20:36:43.498Z,5.43
2018-03-19T20:39:12.988Z,4.50
2018-03-19T20:41:43.431Z,6.53
2018-03-19T20:44:12.858Z,4.57
2018-03-19T20:46:42.285Z,4.77
2018-03-19T20:49:11.644Z,4.57
2018-03-19T20:51:41.897Z,4.03
2018-03-19T20:54:11.280Z,4.73
2018-03-19T20:56:41.185Z,4.33
2018-03-19T20:59:10.255Z,5.40
2018-03-19T21:01:40.531Z,4.00
2018-03-19T21:04:09.858Z,3.87
2018-03-19T21:06:39.188Z,3.57
2018-03-19T21:09:09.932Z,5.40
2018-03-19T21:11:39.805Z,3.43
2018-03-19T21:14:09.250Z,4.03
2018-03-19T21:16:38.978Z,4.70
2018-03-19T21:19:08.421Z,5.43
2018-03-19T21:21:37.734Z,2.87
2018-03-19T21:24:06.866Z,6.73
2018-03-19T21:26:36.724Z,2.90
2018-03-19T21:29:06.052Z,3.07
2018-03-19T21:31:35.754Z,3.20
2018-03-19T21:34:05.085Z,2.80
2018-03-19T21:36:35.815Z,2.70
2018-03-19T21:39:05.736Z,3.30
2018-03-19T21:41:35.178Z,3.07
2018-03-19T21:44:04.343Z,2.87
2018-03-19T21:46:34.637Z,2.87
2018-03-19T21:49:03.701Z,3.20
2018-03-19T21:51:33.000Z,2.57
2018-03-19T21:54:02.338Z,3.00
2018-03-19T21:56:32.143Z,3.60
2018-03-19T21:59:01.432Z,2.83
2018-03-19T22:01:30.941Z,6.97
2018-03-19T22:04:00.406Z,3.53
2018-03-19T22:06:29.938Z,3.80
2018-03-19T22:08:59.864Z,2.10
2018-03-19T22:11:29.355Z,1.93
2018-03-19T22:13:58.678Z,1.87
2018-03-19T22:16:27.916Z,1.97
2018-03-19T22:18:57.251Z,1.80
2018-03-19T22:21:26.746Z,2.13
2018-03-19T22:23:56.021Z,3.10
2018-03-19T22:26:25.364Z,3.03
2018-03-19T22:28:54.604Z,3.53
2018-03-19T22:31:24.135Z,1.87
2018-03-19T22:33:53.755Z,1.87
2018-03-19T22:36:23.180Z,2.53
2018-03-19T22:38:52.964Z,2.73
2018-03-19T22:41:22.285Z,1.93
2018-03-19T22:43:51.559Z,2.23
2018-03-19T22:46:21.312Z,1.97
2018-03-19T22:48:51.352Z,1.87
2018-03-19T22:51:20.896Z,1.73
2018-03-19T22:53:51.185Z,3.13
2018-03-19T22:56:20.526Z,1.73
2018-03-19T22:58:49.612Z,1.90
2018-03-19T23:01:19.354Z,3.30
2018-03-19T23:03:48.798Z,2.80
2018-03-19T23:06:18.554Z,1.80
2018-03-19T23:08:48.246Z,2.23
2018-03-19T23:11:17.763Z,2.20
2018-03-19T23:13:47.079Z,2.60
2018-03-19T23:16:16.579Z,1.50
2018-03-19T23:18:46.864Z,1.70
2018-03-19T23:21:16.232Z,1.77
2018-03-19T23:23:47.109Z,3.40
2018-03-19T23:26:16.415Z,1.47
2018-03-19T23:28:46.124Z,2.67
2018-03-19T23:31:15.696Z,2.90
2018-03-19T23:33:45.048Z,1.90
2018-03-19T23:36:14.352Z,1.67
2018-03-19T23:38:43.443Z,1.90
2018-03-19T23:41:12.732Z,4.40
2018-03-19T23:43:42.026Z,1.80
2018-03-19T23:46:11.337Z,1.30
2018-03-19T23:48:40.506Z,2.53
2018-03-19T23:51:10.164Z,1.63
2018-03-19T23:53:39.846Z,1.30
2018-03-19T23:56:08.966Z,1.77
2018-03-19T23:58:38.650Z,2.63
